Terminal Aerodrome Forecast
Issued by NWS

Home | Current Version | Previous Version | Text Only | Print | Product List | Glossary On
Versions: 1 2 3 4 5 6 7 8 9 10 11 12 13 14 15 16 17 18 19 20 21 22
000
FTUS45 KPSR 270500
TAFIWA
TAF
KIWA 270521Z 2706/2806 11008KT P6SM FEW250
     FM272100 25008KT P6SM SCT250
     FM280400 12007KT P6SM BKN250
      AMD LTD TO CLD VIS AND WIND TIL 271300=

USA.gov is the U.S. government's official web portal to all federal, state and local government web resources and services.